FranceFixed distance
Trail Du Petit Saint Bernard
28 Sep2025
Distance
68km
Finishers
219187 men32 women
Winning time
7:55:13h
Median pace
5.63km/h
Pace distribution
219 finishers · 4.60–8.59 km/h · mean 5.71
Every finisher ran the same 68 km course, so these paces are directly comparable.
Histogram of finisher pace. 219 finishers ranged from 4.60 to 8.59 kilometres per hour, with a mean of 5.71 and a median of 5.63. The busiest band is 5.0 to 5.5 kilometres per hour, with 61 finishers.
Results
Ranks 201–219 of 219
| Rank | Runner | Time | Pace | Cat. | Placing |
|---|---|---|---|---|---|
| 201 | S/L C. D'Athletisme Co... | 14:22:44h | 4.73 | M40 | 173rd M · 32nd M40 |
| 202 | 14:23:56h | 4.72 | M40 | 174th M · 33rd M40 | |
| 203 | Asptt Compiegne | 14:25:26h | 4.71 | M40 | 175th M · 34th M40 |
| 204 | 14:25:26h | 4.71 | W35 | 29th F · 7th W35 | |
| 205 | Kikourou | 14:25:28h | 4.71 | M55 | 176th M · 8th M55 |
| 206 | LA Patrouille des Guyans | 14:26:50h | 4.71 | M40 | 177th M · 35th M40 |
| 207 | 14:26:50h | 4.71 | M40 | 177th M · 35th M40 | |
| 208 | 14:28:51h | 4.70 | M55 | 179th M · 9th M55 | |
| 209 | Broceliande Aventure | 14:28:51h | 4.70 | M45 | 179th M · 18th M45 |
| 210 | EA Pays de Broceliande | 14:28:54h | 4.70 | M50 | 181st M · 11th M50 |
| 211 | 14:29:06h | 4.70 | M50 | 182nd M · 12th M50 | |
| 212 | 14:31:26h | 4.68 | M40 | 183rd M · 37th M40 | |
| 213 | Cadence | 14:34:42h | 4.66 | W23 | 30th F · 20th W23 |
| 214 | 14:34:42h | 4.66 | M40 | 184th M · 38th M40 | |
| 215 | Cours Cours | 14:34:42h | 4.66 | M35 | 184th M · 34th M35 |
| 216 | 14:34:42h | 4.66 | W35 | 30th F · 8th W35 | |
| 217 | Rugby Club Villeneuvois | 14:44:54h | 4.61 | M55 | 186th M · 10th M55 |
| 218 | 14:47:25h | 4.60 | M23 | 187th M · 61st M23 | |
| 219 | 14:47:26h | 4.60 | W23 | 32nd F · 21st W23 |
- 201S/L C. D'Athletisme Co...173rd M · 32nd M40Time14:22:44hPace4.73Cat.M40
- 202174th M · 33rd M40Time14:23:56hPace4.72Cat.M40
- 203Asptt Compiegne175th M · 34th M40Time14:25:26hPace4.71Cat.M40
- 20429th F · 7th W35Time14:25:26hPace4.71Cat.W35
- 205Kikourou176th M · 8th M55Time14:25:28hPace4.71Cat.M55
- 206LA Patrouille des Guyans177th M · 35th M40Time14:26:50hPace4.71Cat.M40
- 207177th M · 35th M40Time14:26:50hPace4.71Cat.M40
- 208179th M · 9th M55Time14:28:51hPace4.70Cat.M55
- 209Broceliande Aventure179th M · 18th M45Time14:28:51hPace4.70Cat.M45
- 210EA Pays de Broceliande181st M · 11th M50Time14:28:54hPace4.70Cat.M50
- 211182nd M · 12th M50Time14:29:06hPace4.70Cat.M50
- 212183rd M · 37th M40Time14:31:26hPace4.68Cat.M40
- 213Cadence30th F · 20th W23Time14:34:42hPace4.66Cat.W23
- 214184th M · 38th M40Time14:34:42hPace4.66Cat.M40
- 215Cours Cours184th M · 34th M35Time14:34:42hPace4.66Cat.M35
- 21630th F · 8th W35Time14:34:42hPace4.66Cat.W35
- 217Rugby Club Villeneuvois186th M · 10th M55Time14:44:54hPace4.61Cat.M55
- 218187th M · 61st M23Time14:47:25hPace4.60Cat.M23
- 21932nd F · 21st W23Time14:47:26hPace4.60Cat.W23
Showing ranks 201–219 of 219